Aruana, Brazil
Current Conditions -  °F | °C
As of 2:00 PM on Thursday 18 Dec 2014 (Local Time) from SBBW Reporting Station
Thunderstorm Thunderstorm  
Wind Chill: 86°   Ceiling: 9000
Heat Index: 97°   Visibility: 6mi
Dew Point: 77°   Wind: 5mph
Humidity: 74%   Direction: 10°N
Pressure: 29.85"   Gusts: NA
Location:  14.92°S, 51.08°W
Report Text: SBBW 181600Z 01004KT 9999 TS SCT020 FEW025CB BKN090 30/25 Q1011
Loading
Personal Weather Stations






























Interactive Weather Map New forecast layout! Learn more

10-Day Weather Forecast

Advertisements
Track Severe Weather on mobile